Date,TemperatureHighF,TemperatureAvgF,TemperatureLowF,DewpointHighF,DewpointAvgF,DewpointLowF,HumidityHigh,HumidityAvg,HumidityLow,PressureMaxIn,PressureMinIn,WindSpeedMaxMPH,WindSpeedAvgMPH,GustSpeedMaxMPH,PrecipitationSumIn
2013-9-1,84.0,27.5,64.0,71.0,-41.2,-99.9,89,24,48,29.82,29.69,6,1,13,0.00
2013-9-2,70.0,64.0,57.0,61.0,55.5,50.0,86,75,57,30.00,29.82,5,1,10,0.00
2013-9-3,75.0,58.3,48.0,56.0,42.6,-99.9,92,67,50,30.09,29.98,5,1,10,0.00
2013-9-4,84.0,47.6,50.0,65.0,9.5,-99.9,92,50,51,30.13,30.01,4,1,9,0.00
2013-9-5,76.0,65.5,55.0,59.0,54.2,47.0,90,69,50,30.27,30.14,7,2,13,0.00
2013-9-6,85.0,66.4,48.0,68.0,57.2,45.0,90,74,55,30.22,29.97,7,2,13,0.00
2013-9-7,88.0,72.6,66.0,72.0,63.9,-99.9,88,78,57,29.99,29.87,4,1,11,0.05
2013-9-8,71.0,66.2,61.0,66.0,60.9,56.0,88,83,77,30.07,29.94,6,2,16,0.00
2013-9-9,90.0,48.0,64.0,77.0,-9.4,-99.9,89,38,62,29.96,29.75,7,2,15,0.01
2013-9-10,95.0,81.2,69.0,70.0,66.3,63.0,85,63,39,29.94,29.79,9,2,21,0.00
2013-9-11,81.0,42.8,69.0,68.0,-4.9,-99.9,91,43,61,30.08,29.94,6,1,18,0.54
2013-9-12,74.0,47.4,58.0,63.0,9.3,-99.9,90,46,48,30.13,29.96,6,1,14,0.00
2013-9-13,64.0,54.8,47.0,46.0,42.7,40.0,84,65,41,30.22,30.14,6,2,13,0.00
2013-9-14,70.0,54.8,40.0,49.0,42.9,-99.9,91,69,45,30.16,29.98,5,1,12,0.00
2013-9-15,62.0,35.8,52.0,56.0,-6.4,-99.9,91,51,70,30.23,29.97,7,1,13,0.54
2013-9-16,64.0,53.2,43.0,49.0,43.9,39.0,86,72,52,30.40,30.23,7,2,12,0.01
2013-9-17,69.0,55.8,42.0,54.0,48.2,38.0,90,77,59,30.34,30.09,7,1,12,0.00
2013-9-18,67.0,55.4,57.0,63.0,44.2,-99.9,89,78,82,30.09,29.88,4,1,9,0.03
2013-9-19,84.0,8.4,68.0,73.0,-82.2,-99.9,82,7,67,29.89,29.70,10,2,30,2.34
2013-9-20,72.0,22.4,58.0,60.0,-46.2,-99.9,75,24,65,29.81,29.70,8,2,15,1.97
2013-9-21,59.0,53.0,47.0,50.0,42.1,-99.9,78,69,61,29.94,29.81,7,1,19,0.04
2013-9-22,62.0,50.7,41.0,46.0,40.3,35.0,78,68,50,30.08,29.94,4,1,8,0.00
2013-9-23,68.0,53.3,43.0,53.0,43.4,37.0,78,69,57,30.12,30.02,5,1,11,0.00
2013-9-24,71.0,40.3,48.0,56.0,1.5,-99.9,81,47,56,30.05,29.96,5,1,10,0.01
2013-9-25,71.0,47.2,47.0,55.0,17.1,-99.9,77,54,57,30.00,29.94,5,1,9,0.01
2013-9-26,76.0,43.0,49.0,58.0,2.9,-99.9,73,43,50,30.08,29.98,6,1,10,0.01
2013-9-27,81.0,53.7,52.0,59.0,19.1,-99.9,65,44,46,30.14,30.03,8,1,13,0.00
2013-9-28,80.0,68.1,56.0,62.0,49.9,-99.9,60,55,53,30.05,29.80,12,5,28,0.00
2013-9-29,70.0,32.3,52.0,48.0,-25.0,-99.9,63,27,41,30.06,29.97,4,0,7,0.09
2013-9-30,71.0,64.6,56.0,51.0,47.6,40.0,62,55,46,29.95,29.80,10,4,18,0.00